createdAt,value
2022-08-28T11:01:42.690Z,18.20
2022-08-28T11:03:33.611Z,13.60
2022-08-28T11:05:06.775Z,20.40
2022-08-28T11:06:56.691Z,17.20
2022-08-28T11:08:31.547Z,19.60
2022-08-28T11:10:19.321Z,15.20
2022-08-28T11:12:01.549Z,17.80
2022-08-28T11:13:45.051Z,16.60
2022-08-28T11:15:36.351Z,16.80
2022-08-28T11:17:35.166Z,18.80
2022-08-28T11:19:24.913Z,18.60
2022-08-28T11:21:26.459Z,17.40
2022-08-28T11:23:17.292Z,16.80
2022-08-28T11:25:19.334Z,17.00
2022-08-28T11:27:25.519Z,17.80
2022-08-28T11:28:57.691Z,16.00
2022-08-28T11:30:32.958Z,17.60
2022-08-28T11:32:47.099Z,17.20
2022-08-28T11:34:56.888Z,13.20
2022-08-28T11:36:29.842Z,16.00
2022-08-28T11:38:01.603Z,18.00
2022-08-28T11:39:33.465Z,17.40
2022-08-28T11:41:15.398Z,16.40
2022-08-28T11:42:50.099Z,15.80
2022-08-28T11:44:25.001Z,15.20
2022-08-28T11:45:59.448Z,17.00
2022-08-28T11:47:39.380Z,17.40
2022-08-28T11:49:29.170Z,18.40
2022-08-28T11:51:27.143Z,14.80
2022-08-28T11:53:22.572Z,14.80
2022-08-28T11:55:24.709Z,13.40
2022-08-28T11:57:19.621Z,10.00
2022-08-28T11:58:55.483Z,14.00
2022-08-28T12:00:33.110Z,16.00
2022-08-28T12:02:41.647Z,15.20
2022-08-28T12:04:15.531Z,16.80
2022-08-28T12:05:49.792Z,17.20
2022-08-28T12:07:22.065Z,14.40
2022-08-28T12:09:02.960Z,15.80
2022-08-28T12:10:34.794Z,14.80
2022-08-28T12:12:13.671Z,16.00
2022-08-28T12:13:53.013Z,14.40
2022-08-28T12:15:27.466Z,15.20
2022-08-28T12:16:59.088Z,11.00
2022-08-28T12:18:58.534Z,11.20
2022-08-28T12:20:39.374Z,15.00
2022-08-28T12:22:19.195Z,17.00
2022-08-28T12:23:59.004Z,14.80
2022-08-28T12:25:39.019Z,15.00
2022-08-28T12:27:10.680Z,17.80
2022-08-28T12:29:28.019Z,15.80
2022-08-28T12:31:05.413Z,15.00
2022-08-28T12:32:52.103Z,15.00
2022-08-28T12:34:54.040Z,17.00
2022-08-28T12:36:26.833Z,16.00
2022-08-28T12:38:00.100Z,15.80
2022-08-28T12:39:32.160Z,15.60
2022-08-28T12:41:03.899Z,13.20
2022-08-28T12:42:38.398Z,16.00
2022-08-28T12:44:12.287Z,16.60
2022-08-28T12:45:49.124Z,13.80
2022-08-28T12:47:22.942Z,14.60
2022-08-28T12:48:56.870Z,15.40
2022-08-28T12:50:28.614Z,15.80
2022-08-28T12:52:16.729Z,14.80
2022-08-28T12:53:51.183Z,13.60
2022-08-28T12:55:25.391Z,15.20
2022-08-28T12:56:57.082Z,13.60
2022-08-28T12:58:33.926Z,14.80
2022-08-28T13:00:09.241Z,16.00
2022-08-28T13:01:41.619Z,13.60
2022-08-28T13:03:13.519Z,14.20
2022-08-28T13:05:12.304Z,14.20
2022-08-28T13:06:44.027Z,14.40
2022-08-28T13:08:15.783Z,16.40
2022-08-28T13:09:52.492Z,16.20
2022-08-28T13:11:25.410Z,16.20
2022-08-28T13:13:05.425Z,15.00
2022-08-28T13:14:37.543Z,14.80
2022-08-28T13:16:10.805Z,5.80
2022-08-28T13:17:50.391Z,13.00
2022-08-28T13:19:29.507Z,13.80
2022-08-28T13:21:34.106Z,14.00
2022-08-28T13:23:07.811Z,14.40
2022-08-28T13:24:44.315Z,14.60
2022-08-28T13:26:29.174Z,16.00
2022-08-28T13:28:11.891Z,13.20
2022-08-28T13:29:50.333Z,11.00
2022-08-28T13:31:28.187Z,16.20
2022-08-28T13:33:02.509Z,14.60
2022-08-28T13:34:35.869Z,14.80
2022-08-28T13:36:29.983Z,15.40
2022-08-28T13:38:10.539Z,12.00
2022-08-28T13:39:43.457Z,15.00
2022-08-28T13:41:15.423Z,14.40
2022-08-28T13:42:47.308Z,14.20
2022-08-28T13:44:51.678Z,14.40
2022-08-28T13:46:26.654Z,14.00
2022-08-28T13:47:58.699Z,11.80
2022-08-28T13:49:30.638Z,13.00
2022-08-28T13:51:07.684Z,13.20
2022-08-28T13:52:42.642Z,13.20
2022-08-28T13:54:14.613Z,14.80
2022-08-28T13:55:46.907Z,13.20
2022-08-28T13:57:18.742Z,13.60
2022-08-28T13:58:57.406Z,14.80
2022-08-28T14:00:31.118Z,11.80
2022-08-28T14:02:23.901Z,14.20
2022-08-28T14:03:55.870Z,9.60
2022-08-28T14:05:28.186Z,14.60
2022-08-28T14:06:59.945Z,14.60
2022-08-28T14:08:31.637Z,15.60
2022-08-28T14:10:04.537Z,15.00
2022-08-28T14:11:36.568Z,14.60
2022-08-28T14:13:08.596Z,15.00
2022-08-28T14:14:42.127Z,15.80
2022-08-28T14:16:16.842Z,15.00
2022-08-28T14:17:48.723Z,17.60
2022-08-28T14:19:20.891Z,15.20
2022-08-28T14:20:52.676Z,15.20
2022-08-28T14:22:24.930Z,16.60
2022-08-28T14:23:56.595Z,19.60
2022-08-28T14:25:28.417Z,13.40
2022-08-28T14:27:00.250Z,16.40
2022-08-28T14:28:34.325Z,18.00
2022-08-28T14:30:07.176Z,22.00
2022-08-28T14:31:41.044Z,20.00
2022-08-28T14:33:15.073Z,19.60
2022-08-28T14:34:47.631Z,22.20
2022-08-28T14:36:24.265Z,21.80
2022-08-28T14:37:55.967Z,21.80
2022-08-28T14:39:27.955Z,22.00
2022-08-28T14:40:59.671Z,22.20
2022-08-28T14:42:31.395Z,21.40
2022-08-28T14:44:03.462Z,22.20
2022-08-28T14:45:41.949Z,21.20
2022-08-28T14:47:15.880Z,18.80
2022-08-28T14:48:48.045Z,25.40
2022-08-28T14:50:19.809Z,22.80
2022-08-28T14:51:51.930Z,24.00
2022-08-28T14:53:23.709Z,20.20
2022-08-28T14:54:55.634Z,21.60
2022-08-28T14:56:28.780Z,22.20
2022-08-28T14:58:03.516Z,23.80
2022-08-28T14:59:36.644Z,22.80
2022-08-28T15:01:08.503Z,23.20
2022-08-28T15:02:40.214Z,21.00
2022-08-28T15:04:16.850Z,24.40
2022-08-28T15:05:59.748Z,22.40
2022-08-28T15:07:31.601Z,24.00
2022-08-28T15:09:03.411Z,24.00
2022-08-28T15:10:40.306Z,24.20
2022-08-28T15:12:12.053Z,26.60
2022-08-28T15:13:44.756Z,27.00
2022-08-28T15:15:17.676Z,30.20
2022-08-28T15:16:49.652Z,31.40
2022-08-28T15:18:21.423Z,28.60
2022-08-28T15:19:53.221Z,33.80
2022-08-28T15:21:35.457Z,33.40
2022-08-28T15:23:07.257Z,30.40
2022-08-28T15:24:40.559Z,31.80
2022-08-28T15:26:15.514Z,33.20
2022-08-28T15:27:47.473Z,31.40
2022-08-28T15:29:19.272Z,30.80
2022-08-28T15:30:50.979Z,32.60
2022-08-28T15:32:23.007Z,31.60
2022-08-28T15:33:54.874Z,32.00
2022-08-28T15:35:26.830Z,30.80
2022-08-28T15:36:59.229Z,31.80
2022-08-28T15:38:53.811Z,25.80
2022-08-28T15:40:46.924Z,29.00
2022-08-28T15:42:18.600Z,29.20
2022-08-28T15:43:53.990Z,25.20
2022-08-28T15:45:26.801Z,25.80
2022-08-28T15:47:01.099Z,22.00
2022-08-28T15:48:33.033Z,20.40
2022-08-28T15:50:08.250Z,21.80
2022-08-28T15:51:43.128Z,24.20
2022-08-28T15:53:15.129Z,19.80
2022-08-28T15:54:49.965Z,20.00
2022-08-28T15:56:21.822Z,22.80
2022-08-28T15:57:55.107Z,19.60
2022-08-28T15:59:39.957Z,18.20
2022-08-28T16:01:19.955Z,16.20
2022-08-28T16:02:51.720Z,17.80
2022-08-28T16:04:23.460Z,18.60
2022-08-28T16:05:55.142Z,16.80
2022-08-28T16:07:27.032Z,16.60
2022-08-28T16:08:58.808Z,15.80
2022-08-28T16:10:30.509Z,15.60
2022-08-28T16:12:02.646Z,18.80
2022-08-28T16:13:35.349Z,12.20
2022-08-28T16:15:07.692Z,13.60
2022-08-28T16:16:40.026Z,15.80
2022-08-28T16:18:18.369Z,17.40
2022-08-28T16:19:50.170Z,18.60
2022-08-28T16:21:21.943Z,12.80
2022-08-28T16:22:54.137Z,14.20
2022-08-28T16:24:25.932Z,16.40
2022-08-28T16:25:57.922Z,14.00
2022-08-28T16:27:29.937Z,15.40
2022-08-28T16:29:01.742Z,14.00
2022-08-28T16:30:35.466Z,13.60
2022-08-28T16:32:07.565Z,13.40
2022-08-28T16:33:39.621Z,14.00
2022-08-28T16:35:11.811Z,13.20
2022-08-28T16:36:43.692Z,11.60
2022-08-28T16:38:15.563Z,14.00
2022-08-28T16:39:47.308Z,13.80
2022-08-28T16:41:22.237Z,13.00
2022-08-28T16:42:55.079Z,14.40
2022-08-28T16:44:26.902Z,13.20
2022-08-28T16:45:58.751Z,12.00
2022-08-28T16:47:33.981Z,14.60
2022-08-28T16:49:05.791Z,16.80
2022-08-28T16:50:37.504Z,19.40
2022-08-28T16:52:09.528Z,18.40
2022-08-28T16:53:42.693Z,16.00
2022-08-28T16:55:14.546Z,16.80
2022-08-28T16:56:46.467Z,16.80
2022-08-28T16:58:18.554Z,14.20
2022-08-28T16:59:53.156Z,16.80
2022-08-28T17:01:26.776Z,15.80
2022-08-28T17:02:58.538Z,16.00
2022-08-28T17:04:30.361Z,14.80
2022-08-28T17:06:16.881Z,16.20
2022-08-28T17:07:48.826Z,17.40
2022-08-28T17:09:20.809Z,18.00
2022-08-28T17:10:52.887Z,18.00
2022-08-28T17:12:24.603Z,23.00
2022-08-28T17:13:56.384Z,19.20
2022-08-28T17:15:28.111Z,23.60
2022-08-28T17:16:59.855Z,21.20
2022-08-28T17:18:31.680Z,22.00
2022-08-28T17:20:05.023Z,21.40
2022-08-28T17:21:55.197Z,22.40
2022-08-28T17:23:26.890Z,22.00
2022-08-28T17:25:13.740Z,18.40
2022-08-28T17:26:45.582Z,20.80
2022-08-28T17:28:17.291Z,14.80
2022-08-28T17:29:49.015Z,18.60
2022-08-28T17:31:20.761Z,16.00
2022-08-28T17:32:52.667Z,17.40
2022-08-28T17:34:29.521Z,15.80
2022-08-28T17:36:02.695Z,15.60
2022-08-28T17:37:34.402Z,15.60
2022-08-28T17:39:11.546Z,13.60
2022-08-28T17:40:44.933Z,16.00
2022-08-28T17:42:16.687Z,17.00
2022-08-28T17:43:48.576Z,16.00
2022-08-28T17:45:20.718Z,11.60
2022-08-28T17:46:52.614Z,16.20
2022-08-28T17:48:28.427Z,15.00
2022-08-28T17:50:00.644Z,11.60
2022-08-28T17:51:42.030Z,14.60
2022-08-28T17:53:15.096Z,15.60
2022-08-28T17:54:47.494Z,14.80
2022-08-28T17:56:19.394Z,13.60
2022-08-28T17:58:04.891Z,12.00
2022-08-28T17:59:36.633Z,10.40
2022-08-28T18:01:08.371Z,9.40
2022-08-28T18:02:40.231Z,13.00
2022-08-28T18:04:12.421Z,11.60
2022-08-28T18:05:44.319Z,12.20
2022-08-28T18:07:16.153Z,12.80
2022-08-28T18:08:48.036Z,11.80
2022-08-28T18:10:19.910Z,14.60
2022-08-28T18:11:52.850Z,8.00
2022-08-28T18:13:24.890Z,12.20
2022-08-28T18:14:56.990Z,10.00
2022-08-28T18:16:31.371Z,11.80
2022-08-28T18:18:03.630Z,13.40
2022-08-28T18:19:35.334Z,12.60
2022-08-28T18:21:08.768Z,11.80
2022-08-28T18:22:40.489Z,13.80
2022-08-28T18:24:13.117Z,16.00
2022-08-28T18:25:50.733Z,22.20
2022-08-28T18:27:23.362Z,18.20
2022-08-28T18:28:55.218Z,21.00
2022-08-28T18:30:27.153Z,21.40
2022-08-28T18:31:58.887Z,21.00
2022-08-28T18:33:30.701Z,22.00
2022-08-28T18:35:02.626Z,22.00
2022-08-28T18:36:34.388Z,23.00
2022-08-28T18:38:06.689Z,18.40
2022-08-28T18:39:38.929Z,21.00
2022-08-28T18:41:10.926Z,21.40
2022-08-28T18:42:43.531Z,21.20
2022-08-28T18:44:18.392Z,20.40
2022-08-28T18:45:53.368Z,21.40
2022-08-28T18:47:25.767Z,22.40
2022-08-28T18:48:57.877Z,20.60
2022-08-28T18:50:30.877Z,21.60
2022-08-28T18:52:03.300Z,22.00
2022-08-28T18:53:35.375Z,20.40
2022-08-28T18:55:08.325Z,20.40
2022-08-28T18:56:41.265Z,18.80
2022-08-28T18:58:15.334Z,18.40
2022-08-28T18:59:48.524Z,18.40
2022-08-28T19:01:23.543Z,20.20
2022-08-28T19:02:56.658Z,18.80
2022-08-28T19:04:29.027Z,19.00
2022-08-28T19:06:02.720Z,17.00
2022-08-28T19:07:35.023Z,16.60
2022-08-28T19:09:08.244Z,17.40
2022-08-28T19:10:42.210Z,21.60
2022-08-28T19:12:14.832Z,26.00
2022-08-28T19:13:47.592Z,24.60
2022-08-28T19:15:20.057Z,25.80
2022-08-28T19:16:52.385Z,24.80
2022-08-28T19:18:27.568Z,26.20
2022-08-28T19:19:59.988Z,24.60
2022-08-28T19:21:34.579Z,24.40
2022-08-28T19:23:07.092Z,26.40
2022-08-28T19:24:39.557Z,24.40
2022-08-28T19:26:13.227Z,22.20
2022-08-28T19:27:47.482Z,25.20
2022-08-28T19:29:23.383Z,23.40
2022-08-28T19:30:55.857Z,22.40
2022-08-28T19:32:28.133Z,21.40
2022-08-28T19:34:00.273Z,21.80
2022-08-28T19:35:33.964Z,22.00
2022-08-28T19:37:06.585Z,23.00
2022-08-28T19:38:39.193Z,26.40
2022-08-28T19:40:12.429Z,20.60
2022-08-28T19:41:45.266Z,20.80
2022-08-28T19:43:17.670Z,22.00
2022-08-28T19:44:59.650Z,21.60
2022-08-28T19:46:34.665Z,24.00
2022-08-28T19:48:07.147Z,28.40
2022-08-28T19:49:38.954Z,29.80
2022-08-28T19:51:22.432Z,28.80
2022-08-28T19:52:54.783Z,27.20
2022-08-28T19:54:26.482Z,28.20
2022-08-28T19:55:58.209Z,30.00
2022-08-28T19:57:31.348Z,28.60
2022-08-28T19:59:04.406Z,29.20
2022-08-28T20:00:36.858Z,28.00
2022-08-28T20:02:08.692Z,28.20
2022-08-28T20:03:40.696Z,27.40
2022-08-28T20:05:12.398Z,28.40
2022-08-28T20:06:45.498Z,27.20
2022-08-28T20:08:18.147Z,28.00
2022-08-28T20:09:49.826Z,26.00
2022-08-28T20:11:24.949Z,26.00
2022-08-28T20:12:56.681Z,28.20
2022-08-28T20:14:28.387Z,24.00
2022-08-28T20:16:03.545Z,27.60
2022-08-28T20:17:35.571Z,28.20
2022-08-28T20:19:15.782Z,26.40
2022-08-28T20:20:48.302Z,24.00
2022-08-28T20:22:19.995Z,28.20
2022-08-28T20:23:51.696Z,24.80
2022-08-28T20:25:23.657Z,24.20
2022-08-28T20:26:55.312Z,24.00
2022-08-28T20:28:27.021Z,24.60
2022-08-28T20:30:00.149Z,24.60
2022-08-28T20:31:43.680Z,21.20
2022-08-28T20:33:15.541Z,24.20
2022-08-28T20:34:47.385Z,28.20
2022-08-28T20:36:21.382Z,27.80
2022-08-28T20:37:53.170Z,30.20
2022-08-28T20:39:25.028Z,30.80
2022-08-28T20:41:10.526Z,27.00
2022-08-28T20:42:42.212Z,30.20
2022-08-28T20:44:15.480Z,29.80
2022-08-28T20:45:47.276Z,29.80
2022-08-28T20:47:18.999Z,27.80
2022-08-28T20:48:50.986Z,28.60
2022-08-28T20:50:22.695Z,29.20
2022-08-28T20:51:57.517Z,29.40
2022-08-28T20:53:37.340Z,28.00
2022-08-28T20:55:10.348Z,28.20
2022-08-28T20:56:42.092Z,29.40
2022-08-28T20:58:14.668Z,27.80
2022-08-28T20:59:47.536Z,26.60
2022-08-28T21:01:19.619Z,27.00
2022-08-28T21:02:51.755Z,27.00
2022-08-28T21:04:23.614Z,25.40
2022-08-28T21:05:55.610Z,22.60
2022-08-28T21:07:27.440Z,26.00
2022-08-28T21:08:59.365Z,25.80
2022-08-28T21:10:31.155Z,23.00
2022-08-28T21:12:03.136Z,23.40
2022-08-28T21:13:34.831Z,23.00
2022-08-28T21:15:11.419Z,23.00
2022-08-28T21:16:43.433Z,22.00
2022-08-28T21:18:15.943Z,22.20
2022-08-28T21:19:50.115Z,20.40
2022-08-28T21:21:21.868Z,22.20
2022-08-28T21:22:54.765Z,20.20
2022-08-28T21:24:26.710Z,18.60
2022-08-28T21:25:58.371Z,19.60
2022-08-28T21:27:30.085Z,18.20
2022-08-28T21:29:01.762Z,20.00
2022-08-28T21:30:34.204Z,18.20
2022-08-28T21:32:06.153Z,20.00
2022-08-28T21:33:37.999Z,16.40
2022-08-28T21:35:11.040Z,20.20
2022-08-28T21:36:50.094Z,19.40
2022-08-28T21:38:22.173Z,19.60
2022-08-28T21:39:56.654Z,19.20
2022-08-28T21:41:28.498Z,19.60
2022-08-28T21:43:00.165Z,17.20
2022-08-28T21:44:32.125Z,15.00
2022-08-28T21:46:04.465Z,19.60
2022-08-28T21:47:36.287Z,23.80
2022-08-28T21:49:08.038Z,26.60
2022-08-28T21:50:42.898Z,26.00
2022-08-28T21:52:14.645Z,27.20
2022-08-28T21:53:46.518Z,28.20
2022-08-28T21:55:18.217Z,27.20
2022-08-28T21:56:50.573Z,26.00
2022-08-28T21:58:31.297Z,24.00
2022-08-28T22:00:05.374Z,24.20
2022-08-28T22:01:37.957Z,24.20
2022-08-28T22:03:09.776Z,24.00
2022-08-28T22:04:41.543Z,24.00
2022-08-28T22:06:14.881Z,23.00
2022-08-28T22:07:46.587Z,19.20
2022-08-28T22:09:18.471Z,23.20
2022-08-28T22:10:50.200Z,24.40
2022-08-28T22:12:21.968Z,24.00
2022-08-28T22:13:54.700Z,24.00
2022-08-28T22:15:26.421Z,24.00
2022-08-28T22:16:58.265Z,24.60
2022-08-28T22:18:34.094Z,22.00
2022-08-28T22:20:06.554Z,24.00
2022-08-28T22:21:58.464Z,23.00
2022-08-28T22:23:33.641Z,22.40
2022-08-28T22:25:05.805Z,22.00
2022-08-28T22:26:37.646Z,22.00
2022-08-28T22:28:09.321Z,22.00
2022-08-28T22:29:41.128Z,23.00
2022-08-28T22:31:13.491Z,28.60
2022-08-28T22:32:45.389Z,31.60
2022-08-28T22:34:17.102Z,28.40
